Flight Track Log - Related Links

Times and Time Zones

All times are in EDT time to prevent confusion due to time zone crossing. See the SWA1496 flight status page for this flight to view local times or setup timezone preferences in your user account.

Time Position Orientation Groundspeed Altitude Reporting Facility
EDT Latitude Longitude Course Direction KTS MPH feet Rate Location/Type
Sat 07:21:36 AM 39.8833 -75.2167 90° East 146 168 800  Level Philadelphia TRACON
Sat 07:22:18 AM 39.8833 -75.1833 90° East 179 206 2,000 2,294 Climbing Philadelphia TRACON
Sat 07:23:18 AM 39.9333 -75.1667 14° North 219 252 4,700 3,100 Climbing Philadelphia TRACON
Sat 07:24:18 AM 39.9833 -75.2333 314° West 262 302 8,200 2,700 Climbing Philadelphia TRACON
Sat 07:25:18 AM 40.0333 -75.3167 308° West 287 330 10,100 1,708 Climbing Philadelphia TRACON
Sat 07:26:42 AM 40.1136 -75.4203 315° West 353 406 12,300 1,208 Climbing New York Center
Sat 07:27:42 AM 40.1869 -75.5175 315° West 353 406 13,000 1,450 Climbing New York Center
Sat 07:28:42 AM 40.2500 -75.6036 314° West 353 406 15,200 2,034 Climbing New York Center
Sat 07:29:40 AM 40.3167 -75.7033 311° West 359 413 17,000 1,831 Climbing New York Center
Sat 07:30:40 AM 40.3853 -75.8064 311° West 364 419 18,800 2,361 Climbing New York Center
Sat 07:31:42 AM 40.4428 -75.9225 303° West 376 433 21,800 2,852 Climbing New York Center
Sat 07:32:42 AM 40.4658 -76.0633 282° West 376 433 24,600 2,339 Climbing New York Center
Sat 07:33:40 AM 40.4889 -76.2017 282° West 387 445 26,400 1,714 Climbing New York Center
Sat 07:34:41 AM 40.5131 -76.3508 282° West 401 461 28,000 1,388 Climbing New York Center
Sat 07:35:41 AM 40.5678 -76.4728 301° West 393 452 29,200 1,686 Climbing New York Center
Sat 07:36:42 AM 40.6411 -76.5911 309° West 401 461 31,400 2,067 Climbing New York Center
Sat 07:37:40 AM 40.7378 -76.6597 332° Northwest 393 452 33,300 1,815 Climbing New York Center
Sat 07:38:41 AM 40.8367 -76.7231 334° Northwest 393 452 35,000 1,574 Climbing New York Center
Sat 07:39:42 AM 40.8592 -76.8539 283° West 351 404 36,500 1,279 Climbing New York Center
Sat 07:40:43 AM 40.8667 -76.9919 274° West 359 413 37,600 763 Climbing New York Center
Sat 07:41:40 AM 40.8758 -77.1328 275° West 366 421 38,000 132 Climbing New York Center
Sat 07:43:45 AM 40.8908 -77.4297 274° West 407 468 38,000  Level Cleveland Center
Sat 07:44:45 AM 40.8967 -77.5697 273° West 401 461 38,000  Level Cleveland Center
Sat 07:45:45 AM 40.9025 -77.7122 273° West 395 455 38,000  Level Cleveland Center
Sat 07:46:45 AM 40.9081 -77.8519 273° West 389 448 38,000  Level Cleveland Center
Sat 07:47:45 AM 40.9153 -77.9892 274° West 384 442 38,000  Level Cleveland Center
Sat 07:48:45 AM 40.9308 -78.1289 278° West 384 442 38,000  Level Cleveland Center
Sat 07:49:45 AM 40.9531 -78.2819 281° West 389 448 38,000  Level Cleveland Center
Sat 07:50:45 AM 40.9703 -78.4217 279° West 389 448 38,000  Level Cleveland Center
Sat 07:51:45 AM 40.9853 -78.5558 278° West 389 448 38,000  Level Cleveland Center
Sat 07:52:45 AM 41.0042 -78.6928 280° West 389 448 38,000  Level Cleveland Center
Sat 07:53:45 AM 41.0189 -78.8300 278° West 389 448 38,000  Level Cleveland Center
Sat 07:54:45 AM 41.0333 -78.9564 279° West 389 448 38,000  Level Cleveland Center
Sat 07:55:45 AM 41.0497 -79.0936 279° West 389 448 38,000  Level Cleveland Center
Sat 07:56:45 AM 41.0661 -79.2336 279° West 389 448 38,000  Level Cleveland Center
Sat 07:57:45 AM 41.0803 -79.3711 278° West 389 448 38,000  Level Cleveland Center
Sat 07:58:45 AM 41.0961 -79.5086 279° West 389 448 38,000  Level Cleveland Center
Sat 07:59:45 AM 41.1119 -79.6461 279° West 389 448 38,000  Level Cleveland Center
Sat 08:00:45 AM 41.1256 -79.7864 277° West 389 448 38,000  Level Cleveland Center
Sat 08:01:45 AM 41.1389 -79.9269 277° West 389 448 38,000  Level Cleveland Center
Sat 08:02:45 AM 41.1561 -80.0619 280° West 389 448 38,000  Level Cleveland Center
Sat 08:03:45 AM 41.1692 -80.1997 277° West 384 442 38,000  Level Cleveland Center
Sat 08:04:45 AM 41.1864 -80.3514 279° West 384 442 38,000  Level Cleveland Center
Sat 08:05:45 AM 41.1969 -80.4783 276° West 389 448 38,000  Level Cleveland Center
Sat 08:06:45 AM 41.2117 -80.6136 278° West 384 442 38,000  Level Cleveland Center
Sat 08:07:45 AM 41.2239 -80.7514 277° West 384 442 38,000  Level Cleveland Center
Sat 08:08:45 AM 41.2383 -80.8897 278° West 384 442 38,000  Level Cleveland Center
Sat 08:09:45 AM 41.2525 -81.0250 278° West 384 442 38,000  Level Cleveland Center
Sat 08:10:45 AM 41.2644 -81.1578 277° West 377 434 38,000  Level Cleveland Center
Sat 08:11:45 AM 41.2783 -81.2931 278° West 370 426 38,000  Level Cleveland Center
Sat 08:12:45 AM 41.2919 -81.4261 278° West 370 426 38,000  Level Cleveland Center
Sat 08:13:45 AM 41.3033 -81.5561 277° West 370 426 38,000  Level Cleveland Center
Sat 08:14:45 AM 41.3167 -81.6861 278° West 365 420 38,000  Level Cleveland Center
Sat 08:15:45 AM 41.3281 -81.8164 277° West 365 420 38,000  Level Cleveland Center
Sat 08:16:45 AM 41.3411 -81.9522 277° West 365 420 38,000  Level Cleveland Center
Sat 08:17:45 AM 41.3519 -82.0797 276° West 365 420 38,000  Level Cleveland Center
Sat 08:18:45 AM 41.3606 -82.2153 275° West 372 428 38,000  Level Cleveland Center
Sat 08:19:45 AM 41.3669 -82.3483 274° West 367 422 38,000  Level Cleveland Center
Sat 08:20:45 AM 41.3769 -82.4981 275° West 367 422 38,000  Level Cleveland Center
Sat 08:21:45 AM 41.3828 -82.6367 273° West 372 428 38,000  Level Cleveland Center
Sat 08:22:45 AM 41.3906 -82.7753 274° West 372 428 38,000  Level Cleveland Center
Sat 08:23:45 AM 41.4006 -82.9139 276° West 377 434 38,000  Level Cleveland Center
Sat 08:24:45 AM 41.4058 -83.0497 273° West 377 434 38,000  Level Cleveland Center
Sat 08:25:45 AM 41.4133 -83.1886 274° West 382 440 38,000  Level Cleveland Center
Sat 08:26:45 AM 41.4183 -83.3244 273° West 382 440 38,000  Level Cleveland Center
Sat 08:27:45 AM 41.4256 -83.4633 274° West 382 440 38,000 -400 Level Cleveland Center
Sat 08:28:45 AM 41.4344 -83.5994 275° West 377 434 37,200 -850 Descending Cleveland Center
Sat 08:29:45 AM 41.4389 -83.7408 272° West 377 434 36,300 -442 Descending Cleveland Center
Sat 08:31:28 AM 41.4522 -83.9569 275° West 383 441 36,000 -109 Descending Chicago Center
Sat 08:32:30 AM 41.4594 -84.1269 273° West 383 441 36,000 -585 Level Chicago Center
Sat 08:33:31 AM 41.4656 -84.2667 273° West 379 436 34,800 -1,426 Descending Chicago Center
Sat 08:34:32 AM 41.4717 -84.4031 273° West 370 426 33,100 -1,770 Descending Chicago Center
Sat 08:35:33 AM 41.4772 -84.5406 273° West 371 427 31,200 -1,512 Descending Chicago Center
Sat 08:36:35 AM 41.4817 -84.6775 273° West 370 426 30,000 -585 Descending Chicago Center
Sat 08:37:36 AM 41.4875 -84.8236 273° West 393 452 30,000  Level Chicago Center
Sat 08:38:38 AM 41.4931 -84.9839 273° West 427 491 30,000  Level Chicago Center
Sat 08:39:39 AM 41.4986 -85.1489 273° West 440 506 30,000 -984 Level Chicago Center
Sat 08:40:40 AM 41.5033 -85.3139 272° West 441 507 28,000 -2,098 Descending Chicago Center
Sat 08:41:42 AM 41.5075 -85.4769 272° West 433 498 25,700 -2,537 Descending Chicago Center
Sat 08:42:43 AM 41.5133 -85.6367 273° West 426 490 22,800 -2,341 Descending Chicago Center
Sat 08:43:45 AM 41.5178 -85.7903 272° West 418 481 20,900 -1,854 Descending Chicago Center
Sat 08:44:46 AM 41.5219 -85.9339 272° West 394 453 19,000 -2,410 Descending Chicago Center
Sat 08:45:47 AM 41.5250 -86.1039 271° West 384 442 16,000 -2,634 Descending Chicago Center
Sat 08:46:49 AM 41.5236 -86.2431 269° West 375 432 13,600 -2,341 Descending Chicago Center
Sat 08:47:50 AM 41.5231 -86.3792 270° West 368 423 11,200 -1,707 Descending Chicago Center
Sat 08:48:52 AM 41.5211 -86.5047 269° West 344 396 10,100 -537 Descending Chicago Center
Sat 08:49:53 AM 41.5194 -86.6353 269° West 349 402 10,100  Level Chicago Center
Sat 08:50:54 AM 41.5208 -86.7614 271° West 353 406 10,100 -293 Level Chicago Center
Sat 08:51:56 AM 41.5186 -86.9028 269° West 317 365 9,500 -976 Descending Chicago Center
Sat 08:52:57 AM 41.5178 -87.0089 269° West 289 333 8,100 -1,463 Descending Chicago Center
Sat 08:53:59 AM 41.5172 -87.1144 270° West 286 329 6,500 -1,299 Descending Chicago Center
Sat 08:54:34 AM 41.5167 -87.1833 269° West 281 323 6,000 -429 Descending Chicago TRACON
Sat 08:55:23 AM 41.5500 -87.2667 298° West 277 319 5,900 -550 Descending Chicago TRACON
Sat 08:56:23 AM 41.5833 -87.3500 298° West 271 312 5,000 -960 Descending Chicago TRACON
Sat 08:57:03 AM 41.5978 -87.3950 293° West 274 315 4,300 -588 Descending Chicago Center
Sat 08:58:05 AM 41.6292 -87.4836 295° West 269 310 4,000 -146 Descending Chicago Center
Sat 08:59:06 AM 41.6642 -87.5814 296° West 257 296 4,000 -650 Level Chicago Center
Sat 09:00:05 AM 41.7000 -87.6500 305° West 228 262 2,700 -956 Descending Chicago TRACON
Sat 09:00:59 AM 41.7500 -87.6667 346° North 204 235 2,200 -526 Descending Chicago TRACON
Sat 09:01:59 AM 41.8000 -87.6667 360° North 160 184 1,700 -368 Descending Chicago TRACON
Sat 09:02:53 AM 41.8167 -87.7000 304° West 132 152 1,500 -222 Descending Chicago TRACON

Login

Don't have an account? Register now (free) for customized features, flight alerts, and more!